Watertown, WI

7:41 PM CDT on April 24, 2015 (GMT -0500)
K9LUK's Station | | Change Station
CLOSE
Current Station
Personal Weather Station
Location: Watertown, WI
Elevation: 834 ft
Nearby Weather Stations

Elev 834 ft 43.20 °N, 88.75 °W | Updated 1 minute ago

Rain
Rain
39.2 °F
Feels Like 36 °F
N
5.0
Wind Variable Wind from East
Gusts 7.0 mph

Today
High -- | Low -- °F
--% Chance of Precip.
Yesterday
High -- | Low -- °F
Precip. -- in
5:58 AM 7:47 PM
Waxing Crescent, 40% visible
Pressure 29.94 in
Visibility 7.0 miles
Clouds Overcast 3800 ft
Windchill 36 °F
Dew Point 36 °F
Humidity 87%
Rainfall 0.15 in
Snow Depth Not available.
UV 0 out of 12
Pollen 9.20 out of 12
Air Quality Not available.
Flu Activity Local Activity
METAR KRYV 250015Z AUTO 08009KT 7SM -DZ OVC038 04/03 A2994 RMK AO2 T00400030

More Conditions Fewer Conditions

Pressure 29.94 in
Visibility 7.0 miles
Clouds Overcast 3800 ft
Windchill 36 °F
Dew Point 36 °F
Humidity 87%
Rainfall 0.15 in
Snow Depth Not available.
UV 0 out of 12
Pollen 9.20 out of 12
Air Quality Not available.
Flu Activity Local Activity
METAR KRYV 250015Z AUTO 08009KT 7SM -DZ OVC038 04/03 A2994 RMK AO2 T00400030

More Conditions Fewer Conditions

Nowcast | as of 7:14 PM CDT on April 24, 2015

Look for showers to continue to become more scattered through the evening behind the band of steady showers along and northeast of a Westfield...Randolph to Germantown line. This band should push northeast of Sheboygan County between 930 PM and 10 PM. A few ice pellets or snow flakes may mix in with the rain showers in this band. Rainfall of one to two tenths of an inch are expected with the steady showers this evening. Temperatures will cool through the 40s into the upper 30s by midnight...with readings around 40 hanging on along and southwest of a dells...Madison to Lake Geneva line.

×

10-Day Weather Forecast

Almanac

Astronomy

Apr. 24, 2015 Rise Set
Actual Time
Civil Twilight
Nautical Twilight
Astronomical Twilight
Moon
Length of Visible Light
Length of Day
Tomorrow will be .
, % of the Moon is Illuminated

Today's Extremes

State Highs State Lows

Community

WunderPhotos

Upload Photos

1,816,526 photos uploaded!

WunderBlogs® & News

Nearby

Air Quality

  Air Quality AQ Index Pollutant
Not available.

Snow Depth

Station Depth Elevation

Earthquake Activity

City Distance Mag. Time & Date
Minimum magnitude displayed is 2.5.

Coastal Water Temperatures

Place Temperature

Stations

Nearby Weather Stations

Station Location Temp. Windchill Dew Point Humidity Wind Precip. Elev Updated Type